createdAt,value
2022-08-11T00:00:35.036Z,3.35
2022-08-11T00:03:47.200Z,4.43
2022-08-11T00:06:54.100Z,3.60
2022-08-11T00:09:51.445Z,3.20
2022-08-11T00:13:01.071Z,3.17
2022-08-11T00:15:58.208Z,3.85
2022-08-11T00:19:05.055Z,3.25
2022-08-11T00:22:11.532Z,3.65
2022-08-11T00:25:15.777Z,3.67
2022-08-11T00:28:30.862Z,3.55
2022-08-11T00:31:29.326Z,3.63
2022-08-11T00:34:37.892Z,3.78
2022-08-11T00:37:28.974Z,5.32
2022-08-11T00:40:38.934Z,4.43
2022-08-11T00:44:13.497Z,4.25
2022-08-11T00:47:08.796Z,3.30
2022-08-11T00:50:19.622Z,3.90
2022-08-11T00:53:38.287Z,3.50
2022-08-11T00:57:05.045Z,3.42
2022-08-11T01:00:35.706Z,3.88
2022-08-11T01:04:01.298Z,3.63
2022-08-11T01:08:02.331Z,3.58
2022-08-11T01:10:49.881Z,3.83
2022-08-11T01:14:00.283Z,3.55
2022-08-11T01:20:48.568Z,3.33
2022-08-11T01:24:34.217Z,3.58
2022-08-11T01:28:41.459Z,3.72
2022-08-11T01:32:05.983Z,3.90
2022-08-11T01:35:34.730Z,3.88
2022-08-11T01:38:47.310Z,4.20
2022-08-11T01:42:03.441Z,3.60
2022-08-11T01:45:22.902Z,4.05
2022-08-11T01:48:16.713Z,3.50
2022-08-11T01:51:36.381Z,3.97
2022-08-11T01:54:44.755Z,4.15
2022-08-11T01:57:54.573Z,3.80
2022-08-11T02:01:06.971Z,3.78
2022-08-11T02:04:20.669Z,3.17
2022-08-11T02:07:32.972Z,3.78
2022-08-11T02:10:50.480Z,3.90
2022-08-11T02:14:01.670Z,3.50
2022-08-11T02:17:15.137Z,4.03
2022-08-11T02:20:22.477Z,3.85
2022-08-11T02:24:05.523Z,3.97
2022-08-11T02:27:14.539Z,3.50
2022-08-11T02:30:07.289Z,3.90
2022-08-11T02:33:24.841Z,3.28
2022-08-11T02:36:37.970Z,3.42
2022-08-11T02:39:56.959Z,3.63
2022-08-11T02:42:56.141Z,4.10
2022-08-11T02:46:08.029Z,3.58
2022-08-11T02:49:48.502Z,3.78
2022-08-11T02:53:00.868Z,3.72
2022-08-11T02:56:14.011Z,4.07
2022-08-11T02:59:44.077Z,3.60
2022-08-11T03:03:16.411Z,3.38
2022-08-11T03:06:31.125Z,4.43
2022-08-11T03:09:45.401Z,4.68
2022-08-11T03:13:15.761Z,4.07
2022-08-11T03:16:43.159Z,3.95
2022-08-11T03:19:35.612Z,4.35
2022-08-11T03:25:56.852Z,4.05
2022-08-11T03:29:07.754Z,4.00
2022-08-11T03:32:01.930Z,3.95
2022-08-11T03:35:09.668Z,4.28
2022-08-11T03:38:30.582Z,4.60
2022-08-11T03:42:04.172Z,4.10
2022-08-11T03:44:57.542Z,4.95
2022-08-11T03:47:58.269Z,5.20
2022-08-11T03:51:09.090Z,4.47
2022-08-11T03:54:19.602Z,4.78
2022-08-11T03:57:59.344Z,5.35
2022-08-11T04:01:42.544Z,4.32
2022-08-11T04:05:13.837Z,4.70
2022-08-11T04:08:36.494Z,4.32
2022-08-11T04:11:54.911Z,4.60
2022-08-11T04:15:30.661Z,4.07
2022-08-11T04:19:38.027Z,4.90
2022-08-11T04:23:11.857Z,4.00
2022-08-11T04:26:59.876Z,4.50
2022-08-11T04:30:13.132Z,4.93
2022-08-11T04:33:49.605Z,5.00
2022-08-11T04:37:38.148Z,4.45
2022-08-11T04:40:57.244Z,5.05
2022-08-11T04:44:21.450Z,5.15
2022-08-11T04:48:08.185Z,4.80
2022-08-11T04:51:48.938Z,4.50
2022-08-11T04:55:22.121Z,4.47
2022-08-11T04:58:39.929Z,4.55
2022-08-11T05:01:56.770Z,4.53
2022-08-11T05:05:27.811Z,4.20
2022-08-11T05:08:48.072Z,4.70
2022-08-11T05:12:21.237Z,4.40
2022-08-11T05:16:03.922Z,4.28
2022-08-11T05:19:10.017Z,3.95
2022-08-11T05:22:15.794Z,3.78
2022-08-11T05:26:43.098Z,4.30
2022-08-11T05:28:51.846Z,4.25
2022-08-11T05:32:02.263Z,3.72
2022-08-11T05:34:54.745Z,3.40
2022-08-11T05:37:58.013Z,3.70
2022-08-11T05:41:07.729Z,3.30
2022-08-11T05:44:20.126Z,3.35
2022-08-11T05:47:28.852Z,2.90
2022-08-11T05:50:53.145Z,3.50
2022-08-11T05:54:28.915Z,3.13
2022-08-11T05:57:51.046Z,3.20
2022-08-11T06:00:59.209Z,3.15
2022-08-11T06:04:17.424Z,3.40
2022-08-11T06:07:29.211Z,2.85
2022-08-11T06:10:37.567Z,2.88
2022-08-11T06:13:45.693Z,3.00
2022-08-11T06:16:52.979Z,3.05
2022-08-11T06:20:07.167Z,3.50
2022-08-11T06:23:15.434Z,2.83
2022-08-11T06:26:22.265Z,3.05
2022-08-11T06:29:37.980Z,2.80
2022-08-11T06:32:35.904Z,4.30
2022-08-11T06:35:30.969Z,3.08
2022-08-11T06:38:27.314Z,2.65
2022-08-11T06:41:31.769Z,3.45
2022-08-11T06:44:24.527Z,3.00
2022-08-11T06:50:17.591Z,3.25
2022-08-11T06:53:09.928Z,2.55
2022-08-11T06:56:15.650Z,2.53
2022-08-11T06:59:21.146Z,2.70
2022-08-11T07:02:12.631Z,3.08
2022-08-11T07:05:01.903Z,4.10
2022-08-11T07:08:34.322Z,2.90
2022-08-11T07:12:02.067Z,2.60
2022-08-11T07:15:10.112Z,3.08
2022-08-11T07:18:12.271Z,3.05
2022-08-11T07:21:59.949Z,2.90
2022-08-11T07:25:11.942Z,2.83
2022-08-11T07:28:19.965Z,2.78
2022-08-11T07:31:09.562Z,3.00
2022-08-11T07:34:07.713Z,2.83
2022-08-11T07:36:58.973Z,3.30
2022-08-11T07:39:47.796Z,3.47
2022-08-11T07:42:37.374Z,3.00
2022-08-11T07:45:42.972Z,3.28
2022-08-11T07:49:07.713Z,3.60
2022-08-11T07:52:30.427Z,2.75
2022-08-11T07:55:19.766Z,3.08
2022-08-11T07:58:26.105Z,6.00
2022-08-11T08:01:37.660Z,3.20
2022-08-11T08:04:47.215Z,3.40
2022-08-11T08:07:53.303Z,2.65
2022-08-11T08:11:00.358Z,2.78
2022-08-11T08:14:07.346Z,2.83
2022-08-11T08:17:12.971Z,2.83
2022-08-11T08:20:00.635Z,2.47
2022-08-11T08:22:51.526Z,2.30
2022-08-11T08:25:40.676Z,2.50
2022-08-11T08:28:48.776Z,2.17
2022-08-11T08:31:56.612Z,2.47
2022-08-11T08:35:04.762Z,2.40
2022-08-11T08:38:12.818Z,2.50
2022-08-11T08:41:21.986Z,3.85
2022-08-11T08:44:41.500Z,2.17
2022-08-11T08:47:53.961Z,2.38
2022-08-11T08:51:22.120Z,2.10
2022-08-11T08:54:31.501Z,2.53
2022-08-11T08:57:40.278Z,2.10
2022-08-11T09:00:51.596Z,2.25
2022-08-11T09:04:05.151Z,2.30
2022-08-11T09:07:18.122Z,2.50
2022-08-11T09:10:26.940Z,2.40
2022-08-11T09:13:35.665Z,2.47
2022-08-11T09:16:45.309Z,2.28
2022-08-11T09:19:58.639Z,2.40
2022-08-11T09:27:03.949Z,2.70
2022-08-11T09:30:12.593Z,2.88
2022-08-11T09:33:22.660Z,2.80
2022-08-11T09:36:48.147Z,2.60
2022-08-11T09:40:14.025Z,2.45
2022-08-11T09:43:39.798Z,2.53
2022-08-11T09:46:47.986Z,3.03
2022-08-11T09:50:01.901Z,2.85
2022-08-11T09:53:36.476Z,2.30
2022-08-11T09:57:00.920Z,2.40
2022-08-11T10:00:14.080Z,2.63
2022-08-11T10:03:23.759Z,2.67
2022-08-11T10:06:53.981Z,3.33
2022-08-11T10:10:03.072Z,2.17
2022-08-11T10:14:10.048Z,2.88
2022-08-11T10:16:41.182Z,3.35
2022-08-11T10:20:05.340Z,2.53
2022-08-11T10:23:32.866Z,2.50
2022-08-11T10:26:54.421Z,2.47
2022-08-11T10:30:20.319Z,2.60
2022-08-11T10:33:55.317Z,2.60
2022-08-11T10:37:15.052Z,2.38
2022-08-11T10:40:23.667Z,3.25
2022-08-11T10:43:13.756Z,3.30
2022-08-11T10:46:28.559Z,3.13
2022-08-11T10:49:18.217Z,2.92
2022-08-11T10:52:23.654Z,3.72
2022-08-11T10:55:29.322Z,3.45
2022-08-11T10:58:35.870Z,2.88
2022-08-11T11:01:24.885Z,3.00
2022-08-11T11:04:14.663Z,2.60
2022-08-11T11:07:05.293Z,2.60
2022-08-11T11:09:55.626Z,2.30
2022-08-11T11:13:02.606Z,2.53
2022-08-11T11:16:09.514Z,2.33
2022-08-11T11:19:00.912Z,2.40
2022-08-11T11:21:51.034Z,3.13
2022-08-11T11:24:43.603Z,2.95
2022-08-11T11:27:33.495Z,2.70
2022-08-11T11:30:21.585Z,3.08
2022-08-11T11:33:14.710Z,3.00
2022-08-11T11:36:10.164Z,3.50
2022-08-11T11:38:58.949Z,3.22
2022-08-11T11:41:46.824Z,2.95
2022-08-11T11:44:35.332Z,3.33
2022-08-11T11:47:23.926Z,3.05
2022-08-11T11:50:13.338Z,2.80
2022-08-11T11:53:01.584Z,2.67
2022-08-11T11:55:49.371Z,2.60
2022-08-11T11:58:55.046Z,3.10
2022-08-11T12:01:47.061Z,3.22
2022-08-11T12:04:57.367Z,3.33
2022-08-11T12:08:15.947Z,2.92
2022-08-11T12:11:41.693Z,3.20
2022-08-11T12:14:50.361Z,2.83
2022-08-11T12:17:38.508Z,2.70
2022-08-11T12:20:32.135Z,2.72
2022-08-11T12:23:40.726Z,2.40
2022-08-11T12:27:16.765Z,2.33
2022-08-11T12:30:08.418Z,2.20
2022-08-11T12:33:15.915Z,2.80
2022-08-11T12:36:31.004Z,2.60
2022-08-11T12:40:16.974Z,2.35
2022-08-11T12:43:08.314Z,2.35
2022-08-11T12:46:10.163Z,2.83
2022-08-11T12:49:16.232Z,2.47
2022-08-11T12:52:14.810Z,2.15
2022-08-11T12:55:13.709Z,2.72
2022-08-11T12:58:18.869Z,2.45
2022-08-11T13:01:24.542Z,2.28
2022-08-11T13:04:34.139Z,2.20
2022-08-11T13:07:21.926Z,2.42
2022-08-11T13:10:17.133Z,1.98
2022-08-11T13:13:04.525Z,2.38
2022-08-11T13:16:12.703Z,2.45
2022-08-11T13:19:19.619Z,2.72
2022-08-11T13:22:07.641Z,2.22
2022-08-11T13:24:55.215Z,2.40
2022-08-11T13:27:45.848Z,2.30
2022-08-11T13:30:51.464Z,2.60
2022-08-11T13:33:42.258Z,2.85
2022-08-11T13:36:30.376Z,2.90
2022-08-11T13:39:39.566Z,2.38
2022-08-11T13:42:47.849Z,2.40
2022-08-11T13:46:14.490Z,2.58
2022-08-11T13:49:21.377Z,2.30
2022-08-11T13:52:29.082Z,2.47
2022-08-11T13:55:51.713Z,3.00
2022-08-11T13:58:53.940Z,2.63
2022-08-11T14:02:20.054Z,2.35
2022-08-11T14:04:59.294Z,2.75
2022-08-11T14:07:50.816Z,2.55
2022-08-11T14:12:20.076Z,2.78
2022-08-11T14:14:37.489Z,2.30
2022-08-11T14:17:48.635Z,2.63
2022-08-11T14:20:56.241Z,2.58
2022-08-11T14:24:04.494Z,2.33
2022-08-11T14:28:32.695Z,2.42
2022-08-11T14:31:00.489Z,2.17
2022-08-11T14:34:10.349Z,2.10
2022-08-11T14:36:59.377Z,2.58
2022-08-11T14:40:26.606Z,2.50
2022-08-11T14:44:12.532Z,3.03
2022-08-11T14:47:23.948Z,2.60
2022-08-11T14:50:14.869Z,2.65
2022-08-11T14:53:03.236Z,2.58
2022-08-11T14:56:08.514Z,2.35
2022-08-11T14:58:57.493Z,2.40
2022-08-11T15:02:03.070Z,2.53
2022-08-11T15:04:53.021Z,2.42
2022-08-11T15:07:41.145Z,2.55
2022-08-11T15:10:29.234Z,2.50
2022-08-11T15:13:18.332Z,2.45
2022-08-11T15:16:23.708Z,2.85
2022-08-11T15:19:12.080Z,3.28
2022-08-11T15:22:19.282Z,3.03
2022-08-11T15:25:16.429Z,3.83
2022-08-11T15:28:40.219Z,3.10
2022-08-11T15:32:05.596Z,3.17
2022-08-11T15:35:33.712Z,3.30
2022-08-11T15:38:55.038Z,3.30
2022-08-11T15:42:22.057Z,3.58
2022-08-11T15:45:49.117Z,3.53
2022-08-11T15:48:57.943Z,3.45
2022-08-11T15:52:08.723Z,3.10
2022-08-11T15:55:17.930Z,2.83
2022-08-11T15:58:44.398Z,2.53
2022-08-11T16:02:09.817Z,3.13
2022-08-11T16:05:45.018Z,2.67
2022-08-11T16:08:46.324Z,2.58
2022-08-11T16:11:56.111Z,2.60
2022-08-11T16:15:23.533Z,2.75
2022-08-11T16:18:41.480Z,2.55
2022-08-11T16:21:50.851Z,2.75
2022-08-11T16:27:03.581Z,2.45
2022-08-11T16:28:28.555Z,2.45
2022-08-11T16:31:36.769Z,2.13
2022-08-11T16:35:02.984Z,2.63
2022-08-11T16:38:28.200Z,2.25
2022-08-11T16:41:55.148Z,2.53
2022-08-11T16:45:22.250Z,2.25
2022-08-11T16:48:37.457Z,2.60
2022-08-11T16:51:46.487Z,2.30
2022-08-11T16:54:54.744Z,2.25
2022-08-11T16:58:19.747Z,2.30
2022-08-11T17:01:29.290Z,1.77
2022-08-11T17:04:56.952Z,2.25
2022-08-11T17:08:24.304Z,2.28
2022-08-11T17:11:52.696Z,2.45
2022-08-11T17:15:02.821Z,2.10
2022-08-11T17:18:12.722Z,2.42
2022-08-11T17:21:21.914Z,2.30
2022-08-11T17:24:29.287Z,1.92
2022-08-11T17:27:37.575Z,1.70
2022-08-11T17:31:02.930Z,2.10
2022-08-11T17:34:45.043Z,2.38
2022-08-11T17:37:53.158Z,2.42
2022-08-11T17:41:23.750Z,2.50
2022-08-11T17:44:49.353Z,2.10
2022-08-11T17:48:14.674Z,2.10
2022-08-11T17:51:37.980Z,2.08
2022-08-11T17:55:06.016Z,2.03
2022-08-11T17:58:33.783Z,2.17
2022-08-11T18:01:42.039Z,1.90
2022-08-11T18:04:52.968Z,2.20
2022-08-11T18:08:21.779Z,2.20
2022-08-11T18:12:07.031Z,2.47
2022-08-11T18:15:33.896Z,2.05
2022-08-11T18:18:59.571Z,2.30
2022-08-11T18:22:27.215Z,2.10
2022-08-11T18:25:58.110Z,2.22
2022-08-11T18:29:23.735Z,2.15
2022-08-11T18:32:51.966Z,2.45
2022-08-11T18:36:22.647Z,1.88
2022-08-11T18:39:56.200Z,2.17
2022-08-11T18:43:27.283Z,2.20
2022-08-11T18:46:54.132Z,2.20
2022-08-11T18:50:33.377Z,1.83
2022-08-11T18:54:08.177Z,1.83
2022-08-11T18:57:33.914Z,2.20
2022-08-11T19:01:15.445Z,1.90
2022-08-11T19:04:41.050Z,2.17
2022-08-11T19:08:07.552Z,1.80
2022-08-11T19:11:33.076Z,1.92
2022-08-11T19:14:58.493Z,1.92
2022-08-11T19:18:25.694Z,1.85
2022-08-11T19:21:51.524Z,2.20
2022-08-11T19:25:18.330Z,2.20
2022-08-11T19:28:45.468Z,1.70
2022-08-11T19:32:10.925Z,2.17
2022-08-11T19:35:37.405Z,2.25
2022-08-11T19:39:02.974Z,1.48
2022-08-11T19:42:28.340Z,1.95
2022-08-11T19:45:54.435Z,1.98
2022-08-11T19:49:19.750Z,2.20
2022-08-11T19:52:47.292Z,2.03
2022-08-11T19:56:13.114Z,1.80
2022-08-11T19:59:39.039Z,1.60
2022-08-11T20:03:09.144Z,1.80
2022-08-11T20:06:34.878Z,1.98
2022-08-11T20:10:05.838Z,1.88
2022-08-11T20:13:32.194Z,2.28
2022-08-11T20:16:57.940Z,1.80
2022-08-11T20:20:24.910Z,1.77
2022-08-11T20:23:50.806Z,1.73
2022-08-11T20:27:24.124Z,1.73
2022-08-11T20:30:51.728Z,1.88
2022-08-11T20:34:18.106Z,1.70
2022-08-11T20:37:47.630Z,1.85
2022-08-11T20:41:16.085Z,1.73
2022-08-11T20:44:43.735Z,1.85
2022-08-11T20:48:09.858Z,1.42
2022-08-11T20:51:39.840Z,1.88
2022-08-11T20:55:05.681Z,1.75
2022-08-11T21:02:27.847Z,1.63
2022-08-11T21:06:08.163Z,2.00
2022-08-11T21:09:58.492Z,1.83
2022-08-11T21:13:25.546Z,1.85
2022-08-11T21:16:53.794Z,1.70
2022-08-11T21:20:22.787Z,1.65
2022-08-11T21:23:49.206Z,1.88
2022-08-11T21:27:16.254Z,2.00
2022-08-11T21:30:47.809Z,2.00
2022-08-11T21:34:13.281Z,2.05
2022-08-11T21:37:40.143Z,1.65
2022-08-11T21:41:08.058Z,1.80
2022-08-11T21:44:33.247Z,1.83
2022-08-11T21:48:01.397Z,1.80
2022-08-11T21:51:26.922Z,1.80
2022-08-11T21:54:53.887Z,1.52
2022-08-11T21:58:19.209Z,1.65
2022-08-11T22:01:44.497Z,2.13
2022-08-11T22:05:10.274Z,1.73
2022-08-11T22:08:37.235Z,1.88
2022-08-11T22:12:33.689Z,1.88
2022-08-11T22:15:50.141Z,2.25
2022-08-11T22:19:15.423Z,2.00
2022-08-11T22:22:51.280Z,2.88
2022-08-11T22:26:18.470Z,2.40
2022-08-11T22:29:50.522Z,1.90
2022-08-11T22:33:17.392Z,1.95
2022-08-11T22:36:49.550Z,1.77
2022-08-11T22:40:15.037Z,1.77
2022-08-11T22:43:40.650Z,2.10
2022-08-11T22:47:08.114Z,2.03
2022-08-11T22:50:33.681Z,1.80
2022-08-11T22:53:59.478Z,1.80
2022-08-11T22:57:24.725Z,2.20
2022-08-11T23:00:50.187Z,2.20
2022-08-11T23:04:16.969Z,1.92
2022-08-11T23:07:51.086Z,2.15
2022-08-11T23:11:17.346Z,1.80
2022-08-11T23:14:42.884Z,2.13
2022-08-11T23:18:08.252Z,2.05
2022-08-11T23:21:35.105Z,2.00
2022-08-11T23:25:00.717Z,1.85
2022-08-11T23:28:26.320Z,2.30
2022-08-11T23:31:53.073Z,1.95
2022-08-11T23:35:40.049Z,2.28
2022-08-11T23:39:04.997Z,1.92
2022-08-11T23:42:30.560Z,2.13
2022-08-11T23:46:01.427Z,2.15
2022-08-11T23:49:26.938Z,2.20
2022-08-11T23:52:52.729Z,2.10
2022-08-11T23:56:21.996Z,1.95
2022-08-11T23:59:47.599Z,2.20
